Gosford, Australia
Current Conditions -  °F | °C
As of 11:00 AM on Friday 28 Nov 2014 (Local Time) from YSRI Reporting Station
Broken Clouds Broken Clouds  
Wind Chill: 72°   Ceiling: 4500
Heat Index: 72°   Visibility: 6mi
Dew Point: 52°   Wind: 5mph
Humidity: 50%   Direction: 310°NW
Pressure: 30.21"   Gusts: NA
Location:  33.43°S, 151.34°E
Report Text: YSRI 280000Z AUTO 31004KT 240V360 9999 // BKN045 22/11 Q1023
Loading
Personal Weather Stations






























Interactive Weather Map New forecast layout! Learn more

10-Day Weather Forecast

Advertisements
Track Severe Weather on mobile